createdAt,value
2022-07-29T00:01:21.112Z,99360.38
2022-07-29T00:03:49.874Z,99361.25
2022-07-29T00:06:19.572Z,99357.84
2022-07-29T00:08:47.743Z,99374.44
2022-07-29T00:11:16.043Z,99364.31
2022-07-29T00:13:47.717Z,99359.84
2022-07-29T00:16:22.028Z,99369.72
2022-07-29T00:18:50.347Z,99370.34
2022-07-29T00:21:20.100Z,99372.03
2022-07-29T00:23:48.375Z,99369.88
2022-07-29T00:26:16.597Z,99371.22
2022-07-29T00:28:45.057Z,99373.84
2022-07-29T00:31:13.316Z,99373.16
2022-07-29T00:33:41.688Z,99375.66
2022-07-29T00:36:08.931Z,99376.38
2022-07-29T00:38:38.655Z,99366.38
2022-07-29T00:41:06.821Z,99370.63
2022-07-29T00:43:35.110Z,99378.03
2022-07-29T00:46:03.509Z,99377.59
2022-07-29T00:48:31.804Z,99379.34
2022-07-29T00:51:00.574Z,99387.66
2022-07-29T00:53:29.131Z,99391.50
2022-07-29T00:55:58.909Z,99386.88
2022-07-29T00:58:28.815Z,99394.75
2022-07-29T01:00:57.203Z,99396.66
2022-07-29T01:03:25.561Z,99386.41
2022-07-29T01:05:55.042Z,99395.19
2022-07-29T01:08:23.791Z,99407.94
2022-07-29T01:10:53.265Z,99394.66
2022-07-29T01:13:24.611Z,99392.03
2022-07-29T01:15:56.888Z,99405.19
2022-07-29T01:18:30.813Z,99399.47
2022-07-29T01:21:07.959Z,99394.59
2022-07-29T01:23:57.205Z,99398.13
2022-07-29T01:26:30.782Z,99399.88
2022-07-29T01:29:08.453Z,99406.69
2022-07-29T01:31:49.144Z,99404.72
2022-07-29T01:34:32.147Z,99412.34
2022-07-29T01:37:05.809Z,99406.00
2022-07-29T01:39:36.095Z,99408.47
2022-07-29T01:42:08.346Z,99411.00
2022-07-29T01:44:40.189Z,99407.19
2022-07-29T01:47:13.347Z,99415.84
2022-07-29T01:49:44.940Z,99414.25
2022-07-29T01:52:15.575Z,99415.88
2022-07-29T01:54:50.105Z,99409.47
2022-07-29T01:57:19.547Z,99403.03
2022-07-29T01:59:50.911Z,99409.03
2022-07-29T02:02:20.570Z,99414.81
2022-07-29T02:04:49.683Z,99407.69
2022-07-29T02:07:19.244Z,99410.13
2022-07-29T02:09:48.377Z,99408.13
2022-07-29T02:12:17.229Z,99412.25
2022-07-29T02:14:47.089Z,99407.72
2022-07-29T02:17:20.725Z,99409.44
2022-07-29T02:19:50.049Z,99409.94
2022-07-29T02:22:19.037Z,99410.09
2022-07-29T02:24:48.567Z,99414.28
2022-07-29T02:27:17.662Z,99412.03
2022-07-29T02:29:47.878Z,99416.06
2022-07-29T02:32:18.321Z,99415.50
2022-07-29T02:34:47.190Z,99404.59
2022-07-29T02:37:15.821Z,99414.69
2022-07-29T02:39:45.993Z,99420.09
2022-07-29T02:42:15.669Z,99417.31
2022-07-29T02:44:44.050Z,99420.91
2022-07-29T02:47:14.513Z,99414.94
2022-07-29T02:49:52.313Z,99420.06
2022-07-29T02:52:22.493Z,99431.84
2022-07-29T02:54:54.272Z,99433.78
2022-07-29T02:57:24.140Z,99431.22
2022-07-29T02:59:53.904Z,99434.97
2022-07-29T03:02:23.014Z,99433.44
2022-07-29T03:04:53.899Z,99431.34
2022-07-29T03:07:23.076Z,99427.38
2022-07-29T03:09:52.277Z,99425.59
2022-07-29T03:12:23.288Z,99433.97
2022-07-29T03:14:51.873Z,99425.72
2022-07-29T03:17:20.475Z,99433.16
2022-07-29T03:19:48.953Z,99426.88
2022-07-29T03:22:19.215Z,99426.88
2022-07-29T03:24:47.765Z,99422.44
2022-07-29T03:27:16.083Z,99430.25
2022-07-29T03:29:49.890Z,99415.00
2022-07-29T03:32:22.387Z,99428.22
2022-07-29T03:34:52.337Z,99426.25
2022-07-29T03:37:22.028Z,99421.88
2022-07-29T03:39:52.027Z,99437.31
2022-07-29T03:42:22.003Z,99437.88
2022-07-29T03:44:51.222Z,99432.38
2022-07-29T03:47:21.500Z,99435.50
2022-07-29T03:49:52.905Z,99435.97
2022-07-29T03:52:23.261Z,99441.31
2022-07-29T03:54:51.605Z,99428.63
2022-07-29T03:57:21.240Z,99438.50
2022-07-29T03:59:51.351Z,99443.06
2022-07-29T04:02:22.411Z,99445.41
2022-07-29T04:04:52.730Z,99442.63
2022-07-29T04:07:22.356Z,99438.44
2022-07-29T04:09:50.905Z,99449.22
2022-07-29T04:12:19.186Z,99438.78
2022-07-29T04:14:47.441Z,99443.56
2022-07-29T04:17:15.844Z,99455.94
2022-07-29T04:19:44.148Z,99460.75
2022-07-29T04:22:12.386Z,99453.66
2022-07-29T04:24:44.437Z,99449.06
2022-07-29T04:27:13.068Z,99455.47
2022-07-29T04:29:56.958Z,99453.38
2022-07-29T04:32:25.912Z,99451.22
2022-07-29T04:34:54.125Z,99447.47
2022-07-29T04:37:22.409Z,99456.31
2022-07-29T04:39:54.167Z,99453.66
2022-07-29T04:42:27.512Z,99453.19
2022-07-29T04:44:56.141Z,99464.50
2022-07-29T04:47:24.753Z,99472.41
2022-07-29T04:49:53.121Z,99467.03
2022-07-29T04:52:21.478Z,99465.69
2022-07-29T04:54:49.777Z,99465.69
2022-07-29T04:57:19.417Z,99468.28
2022-07-29T04:59:47.728Z,99468.41
2022-07-29T05:02:16.066Z,99470.22
2022-07-29T05:04:44.348Z,99467.72
2022-07-29T05:07:12.595Z,99462.03
2022-07-29T05:09:41.758Z,99456.00
2022-07-29T05:12:10.797Z,99459.59
2022-07-29T05:14:40.404Z,99456.78
2022-07-29T05:17:08.773Z,99461.22
2022-07-29T05:19:39.713Z,99436.88
2022-07-29T05:22:08.211Z,99452.97
2022-07-29T05:24:36.481Z,99459.69
2022-07-29T05:27:05.040Z,99462.72
2022-07-29T05:29:44.795Z,99465.63
2022-07-29T05:32:15.291Z,99462.22
2022-07-29T05:34:50.086Z,99464.34
2022-07-29T05:37:20.582Z,99464.94
2022-07-29T05:39:56.842Z,99463.38
2022-07-29T05:42:25.937Z,99471.13
2022-07-29T05:44:54.275Z,99461.13
2022-07-29T05:47:24.077Z,99467.97
2022-07-29T05:49:52.762Z,99477.13
2022-07-29T05:52:20.994Z,99469.47
2022-07-29T05:54:49.435Z,99472.34
2022-07-29T05:57:18.237Z,99466.16
2022-07-29T05:59:46.549Z,99467.03
2022-07-29T06:02:14.697Z,99468.34
2022-07-29T06:04:44.417Z,99469.28
2022-07-29T06:07:12.863Z,99453.38
2022-07-29T06:09:41.144Z,99466.75
2022-07-29T06:12:09.454Z,99454.81
2022-07-29T06:14:39.064Z,99452.06
2022-07-29T06:17:07.712Z,99462.13
2022-07-29T06:19:36.397Z,99455.09
2022-07-29T06:22:06.411Z,99458.59
2022-07-29T06:24:34.765Z,99463.84
2022-07-29T06:27:02.956Z,99459.78
2022-07-29T06:29:31.860Z,99452.59
2022-07-29T06:32:00.001Z,99451.38
2022-07-29T06:34:28.466Z,99454.47
2022-07-29T06:36:56.728Z,99464.25
2022-07-29T06:39:26.446Z,99455.84
2022-07-29T06:41:55.117Z,99459.66
2022-07-29T06:44:27.014Z,99448.53
2022-07-29T06:46:55.884Z,99436.69
2022-07-29T06:49:25.500Z,99446.25
2022-07-29T06:51:53.853Z,99439.03
2022-07-29T06:54:22.784Z,99453.81
2022-07-29T06:56:52.533Z,99454.44
2022-07-29T06:59:28.361Z,99472.97
2022-07-29T07:02:00.679Z,99460.47
2022-07-29T07:04:28.918Z,99452.84
2022-07-29T07:06:57.145Z,99475.56
2022-07-29T07:09:25.373Z,99460.41
2022-07-29T07:12:10.232Z,99459.28
2022-07-29T07:14:38.539Z,99475.91
2022-07-29T07:17:08.182Z,99460.47
2022-07-29T07:19:36.737Z,99464.06
2022-07-29T07:22:05.098Z,99471.94
2022-07-29T07:24:36.470Z,99469.41
2022-07-29T07:27:04.967Z,99470.91
2022-07-29T07:29:34.573Z,99483.34
2022-07-29T07:32:02.926Z,99471.75
2022-07-29T07:34:31.660Z,99474.72
2022-07-29T07:37:00.248Z,99475.19
2022-07-29T07:39:28.607Z,99471.38
2022-07-29T07:41:56.874Z,99470.06
2022-07-29T07:44:25.065Z,99473.28
2022-07-29T07:46:54.988Z,99470.69
2022-07-29T07:49:23.313Z,99468.16
2022-07-29T07:51:51.568Z,99476.66
2022-07-29T07:54:20.803Z,99482.00
2022-07-29T07:56:53.327Z,99478.25
2022-07-29T07:59:21.890Z,99457.72
2022-07-29T08:01:55.532Z,99480.50
2022-07-29T08:04:28.699Z,99482.22
2022-07-29T08:06:57.911Z,99474.38
2022-07-29T08:09:30.694Z,99481.13
2022-07-29T08:12:00.015Z,99473.75
2022-07-29T08:14:28.253Z,99479.50
2022-07-29T08:16:56.631Z,99474.41
2022-07-29T08:19:26.380Z,99477.13
2022-07-29T08:21:55.325Z,99471.00
2022-07-29T08:24:41.617Z,99479.13
2022-07-29T08:27:33.550Z,99477.81
2022-07-29T08:29:58.554Z,99472.66
2022-07-29T08:32:51.954Z,99488.22
2022-07-29T08:35:16.515Z,99473.75
2022-07-29T08:37:44.899Z,99476.59
2022-07-29T08:40:13.509Z,99466.66
2022-07-29T08:42:41.960Z,99476.47
2022-07-29T08:45:10.554Z,99482.09
2022-07-29T08:47:40.951Z,99471.91
2022-07-29T08:50:10.131Z,99468.13
2022-07-29T08:52:41.450Z,99464.84
2022-07-29T08:55:10.709Z,99477.00
2022-07-29T08:57:43.440Z,99472.38
2022-07-29T09:00:20.288Z,99469.50
2022-07-29T09:02:52.762Z,99476.66
2022-07-29T09:05:21.555Z,99475.13
2022-07-29T09:07:51.553Z,99480.38
2022-07-29T09:10:20.194Z,99477.84
2022-07-29T09:12:49.877Z,99481.66
2022-07-29T09:15:18.121Z,99475.78
2022-07-29T09:17:47.685Z,99480.09
2022-07-29T09:20:16.831Z,99472.47
2022-07-29T09:22:45.106Z,99471.16
2022-07-29T09:25:15.385Z,99477.59
2022-07-29T09:27:43.795Z,99475.41
2022-07-29T09:30:13.371Z,99469.16
2022-07-29T09:32:56.600Z,99476.25
2022-07-29T09:35:25.816Z,99480.81
2022-07-29T09:37:54.022Z,99480.69
2022-07-29T09:40:25.203Z,99474.84
2022-07-29T09:42:56.651Z,99491.13
2022-07-29T09:45:29.646Z,99492.47
2022-07-29T09:48:00.183Z,99473.41
2022-07-29T09:50:39.052Z,99480.72
2022-07-29T09:53:07.404Z,99482.06
2022-07-29T09:55:47.931Z,99477.31
2022-07-29T09:58:19.618Z,99481.66
2022-07-29T10:00:48.606Z,99474.03
2022-07-29T10:03:17.854Z,99465.28
2022-07-29T10:05:46.773Z,99486.38
2022-07-29T10:08:15.112Z,99485.88
2022-07-29T10:10:45.141Z,99483.59
2022-07-29T10:13:15.993Z,99488.38
2022-07-29T10:15:46.920Z,99482.75
2022-07-29T10:18:18.569Z,99487.63
2022-07-29T10:20:47.037Z,99477.84
2022-07-29T10:23:15.500Z,99485.44
2022-07-29T10:25:46.507Z,99474.50
2022-07-29T10:28:16.785Z,99484.63
2022-07-29T10:30:46.849Z,99475.13
2022-07-29T10:33:29.225Z,99473.22
2022-07-29T10:36:04.403Z,99475.09
2022-07-29T10:38:47.253Z,99467.53
2022-07-29T10:41:32.367Z,99470.50
2022-07-29T10:44:06.169Z,99483.91
2022-07-29T10:46:37.720Z,99477.06
2022-07-29T10:49:11.506Z,99484.78
2022-07-29T10:52:00.735Z,99488.63
2022-07-29T10:54:42.354Z,99488.44
2022-07-29T10:57:21.738Z,99476.09
2022-07-29T11:00:10.244Z,99492.34
2022-07-29T11:02:53.154Z,99486.91
2022-07-29T11:05:22.309Z,99486.41
2022-07-29T11:08:11.553Z,99497.78
2022-07-29T11:10:48.370Z,99493.06
2022-07-29T11:13:34.121Z,99486.19
2022-07-29T11:16:08.339Z,99498.81
2022-07-29T11:18:36.863Z,99484.59
2022-07-29T11:21:05.160Z,99479.03
2022-07-29T11:23:36.805Z,99473.81
2022-07-29T11:26:23.033Z,99478.38
2022-07-29T11:28:56.928Z,99480.59
2022-07-29T11:31:36.717Z,99477.03
2022-07-29T11:34:21.856Z,99477.59
2022-07-29T11:37:09.157Z,99487.69
2022-07-29T11:39:39.087Z,99481.25
2022-07-29T11:42:35.457Z,99501.88
2022-07-29T11:45:40.404Z,99482.97
2022-07-29T11:50:48.341Z,99479.41
2022-07-29T11:53:17.317Z,99486.78
2022-07-29T11:55:51.527Z,99483.56
2022-07-29T11:58:24.814Z,99489.00
2022-07-29T12:00:55.598Z,99491.69
2022-07-29T12:03:35.420Z,99491.44
2022-07-29T12:06:07.977Z,99483.63
2022-07-29T12:07:03.328Z,99492.41
2022-07-29T12:08:43.831Z,99492.28
2022-07-29T12:11:17.987Z,99494.94
2022-07-29T12:13:49.659Z,99490.44
2022-07-29T12:16:25.471Z,99491.44
2022-07-29T12:19:00.099Z,99486.63
2022-07-29T12:21:29.302Z,99483.09
2022-07-29T12:24:03.492Z,99476.81
2022-07-29T12:26:35.698Z,99484.72
2022-07-29T12:29:04.312Z,99493.94
2022-07-29T12:31:43.199Z,99485.91
2022-07-29T12:34:14.985Z,99487.22
2022-07-29T12:36:43.863Z,99485.19
2022-07-29T12:39:13.517Z,99483.19
2022-07-29T12:41:42.069Z,99482.50
2022-07-29T12:44:10.259Z,99481.63
2022-07-29T12:46:38.847Z,99483.22
2022-07-29T12:49:07.957Z,99472.69
2022-07-29T12:51:38.900Z,99469.16
2022-07-29T12:54:08.673Z,99468.09
2022-07-29T12:56:44.941Z,99469.50
2022-07-29T12:59:14.285Z,99475.22
2022-07-29T13:01:42.520Z,99480.00
2022-07-29T13:04:10.734Z,99480.03
2022-07-29T13:06:41.570Z,99473.91
2022-07-29T13:09:14.478Z,99467.84
2022-07-29T13:11:48.216Z,99470.63
2022-07-29T13:14:33.763Z,99471.34
2022-07-29T13:17:03.076Z,99473.53
2022-07-29T13:19:35.807Z,99470.78
2022-07-29T13:22:05.759Z,99475.38
2022-07-29T13:24:34.263Z,99474.06
2022-07-29T13:27:05.624Z,99472.03
2022-07-29T13:29:34.585Z,99469.09
2022-07-29T13:32:02.798Z,99476.31
2022-07-29T13:34:31.211Z,99472.53
2022-07-29T13:36:59.442Z,99482.81
2022-07-29T13:39:29.114Z,99474.59
2022-07-29T13:41:57.874Z,99474.06
2022-07-29T13:44:28.191Z,99482.19
2022-07-29T13:46:56.873Z,99484.56
2022-07-29T13:49:25.237Z,99485.41
2022-07-29T13:51:53.666Z,99483.84
2022-07-29T13:54:21.904Z,99481.38
2022-07-29T13:56:52.038Z,99487.31
2022-07-29T13:59:20.513Z,99485.09
2022-07-29T14:01:49.087Z,99475.97
2022-07-29T14:04:17.511Z,99474.88
2022-07-29T14:06:45.768Z,99490.16
2022-07-29T14:09:14.023Z,99475.97
2022-07-29T14:11:42.309Z,99484.66
2022-07-29T14:14:12.101Z,99478.97
2022-07-29T14:16:43.722Z,99473.22
2022-07-29T14:19:17.403Z,99483.88
2022-07-29T14:21:45.761Z,99473.78
2022-07-29T14:24:18.062Z,99474.59
2022-07-29T14:26:50.237Z,99470.22
2022-07-29T14:29:20.079Z,99467.53
2022-07-29T14:31:48.599Z,99470.72
2022-07-29T14:34:17.233Z,99466.44
2022-07-29T14:36:45.662Z,99468.28
2022-07-29T14:39:13.960Z,99471.03
2022-07-29T14:41:42.317Z,99465.72
2022-07-29T14:44:10.809Z,99466.97
2022-07-29T14:46:40.735Z,99459.13
2022-07-29T14:49:09.642Z,99456.09
2022-07-29T14:51:38.423Z,99453.09
2022-07-29T14:54:08.805Z,99459.63
2022-07-29T14:56:37.774Z,99457.75
2022-07-29T14:59:16.725Z,99460.34
2022-07-29T15:01:46.860Z,99461.78
2022-07-29T15:04:15.189Z,99458.31
2022-07-29T15:06:44.172Z,99445.75
2022-07-29T15:09:12.533Z,99451.75
2022-07-29T15:11:40.892Z,99456.81
2022-07-29T15:14:09.360Z,99456.25
2022-07-29T15:16:43.474Z,99461.03
2022-07-29T15:19:13.921Z,99461.31
2022-07-29T15:21:48.680Z,99456.69
2022-07-29T15:24:17.815Z,99451.56
2022-07-29T15:26:46.363Z,99456.28
2022-07-29T15:29:14.642Z,99454.88
2022-07-29T15:31:43.038Z,99457.06
2022-07-29T15:34:11.428Z,99453.81
2022-07-29T15:36:56.561Z,99459.34
2022-07-29T15:39:24.905Z,99448.38
2022-07-29T15:41:53.112Z,99462.06
2022-07-29T15:44:21.943Z,99460.59
2022-07-29T15:47:05.838Z,99465.06
2022-07-29T15:49:47.134Z,99464.28
2022-07-29T15:52:25.066Z,99457.97
2022-07-29T15:54:55.328Z,99467.78
2022-07-29T15:57:23.766Z,99463.75
2022-07-29T15:59:52.171Z,99470.50
2022-07-29T16:02:20.750Z,99466.78
2022-07-29T16:04:49.305Z,99468.91
2022-07-29T16:07:19.394Z,99464.94
2022-07-29T16:09:52.845Z,99465.63
2022-07-29T16:12:21.569Z,99459.81
2022-07-29T16:14:51.416Z,99467.16
2022-07-29T16:17:20.091Z,99468.91
2022-07-29T16:19:48.686Z,99471.31
2022-07-29T16:22:17.680Z,99475.56
2022-07-29T16:24:47.963Z,99485.97
2022-07-29T16:27:16.402Z,99520.97
2022-07-29T16:29:44.556Z,99504.06
2022-07-29T16:32:13.434Z,99503.81
2022-07-29T16:34:42.608Z,99511.66
2022-07-29T16:37:11.678Z,99506.09
2022-07-29T16:39:42.295Z,99527.81
2022-07-29T16:42:30.994Z,99529.00
2022-07-29T16:45:06.669Z,99519.84
2022-07-29T16:47:35.887Z,99524.66
2022-07-29T16:50:08.214Z,99515.63
2022-07-29T16:52:38.286Z,99512.06
2022-07-29T16:55:08.588Z,99526.94
2022-07-29T16:57:40.035Z,99514.97
2022-07-29T17:00:09.201Z,99521.53
2022-07-29T17:02:38.948Z,99515.81
2022-07-29T17:05:07.689Z,99525.56
2022-07-29T17:07:36.193Z,99529.13
2022-07-29T17:10:05.636Z,99520.50
2022-07-29T17:12:33.950Z,99517.22
2022-07-29T17:15:03.832Z,99524.09
2022-07-29T17:17:38.583Z,99515.78
2022-07-29T17:20:08.712Z,99517.97
2022-07-29T17:22:37.116Z,99518.94
2022-07-29T17:25:06.172Z,99526.00
2022-07-29T17:27:34.616Z,99528.19
2022-07-29T17:30:05.913Z,99527.59
2022-07-29T17:32:38.909Z,99536.88
2022-07-29T17:35:31.967Z,99538.59
2022-07-29T17:38:00.332Z,99535.06
2022-07-29T17:40:28.825Z,99534.84
2022-07-29T17:42:57.113Z,99538.63
2022-07-29T17:45:48.864Z,99537.69
2022-07-29T17:48:19.754Z,99532.03
2022-07-29T17:50:49.268Z,99527.13
2022-07-29T17:53:18.549Z,99543.78
2022-07-29T17:55:48.900Z,99536.97
2022-07-29T17:58:17.287Z,99540.94
2022-07-29T18:00:47.991Z,99543.31
2022-07-29T18:03:17.763Z,99531.00
2022-07-29T18:05:47.432Z,99537.91
2022-07-29T18:08:20.660Z,99533.91
2022-07-29T18:10:52.203Z,99531.81
2022-07-29T18:13:20.919Z,99537.66
2022-07-29T18:15:55.381Z,99541.53
2022-07-29T18:18:26.468Z,99530.13
2022-07-29T18:20:54.916Z,99548.94
2022-07-29T18:23:23.376Z,99543.78
2022-07-29T18:25:51.622Z,99549.94
2022-07-29T18:28:19.968Z,99545.22
2022-07-29T18:30:53.716Z,99547.13
2022-07-29T18:33:22.806Z,99551.03
2022-07-29T18:35:52.702Z,99550.28
2022-07-29T18:38:39.276Z,99549.38
2022-07-29T18:41:07.569Z,99555.84
2022-07-29T18:43:36.297Z,99550.66
2022-07-29T18:46:07.101Z,99557.97
2022-07-29T18:48:35.634Z,99558.09
2022-07-29T18:51:09.310Z,99555.81
2022-07-29T18:53:38.346Z,99559.88
2022-07-29T18:56:07.024Z,99562.94
2022-07-29T18:58:37.254Z,99562.78
2022-07-29T19:01:07.113Z,99563.06
2022-07-29T19:03:35.391Z,99554.16
2022-07-29T19:06:03.624Z,99565.47
2022-07-29T19:08:33.381Z,99564.41
2022-07-29T19:11:01.723Z,99557.81
2022-07-29T19:13:30.060Z,99566.13
2022-07-29T19:15:58.422Z,99557.31
2022-07-29T19:18:28.197Z,99551.25
2022-07-29T19:20:56.413Z,99547.34
2022-07-29T19:23:25.619Z,99547.97
2022-07-29T19:25:54.191Z,99551.56
2022-07-29T19:28:22.725Z,99546.47
2022-07-29T19:30:51.237Z,99541.06
2022-07-29T19:33:21.020Z,99550.16
2022-07-29T19:35:54.765Z,99545.09
2022-07-29T19:38:23.862Z,99545.59
2022-07-29T19:40:52.188Z,99545.88
2022-07-29T19:43:51.239Z,99547.28
2022-07-29T19:46:08.933Z,99544.38
2022-07-29T19:48:37.188Z,99548.00
2022-07-29T19:51:06.868Z,99546.72
2022-07-29T19:53:35.328Z,99546.72
2022-07-29T19:56:03.793Z,99546.63
2022-07-29T19:58:35.717Z,99545.66
2022-07-29T20:01:10.697Z,99555.47
2022-07-29T20:03:40.294Z,99541.94
2022-07-29T20:06:10.300Z,99547.00
2022-07-29T20:08:41.351Z,99554.88
2022-07-29T20:11:09.937Z,99562.31
2022-07-29T20:13:38.200Z,99554.22
2022-07-29T20:16:08.449Z,99566.56
2022-07-29T20:18:36.748Z,99567.09
2022-07-29T20:21:05.159Z,99563.34
2022-07-29T20:23:35.054Z,99560.66
2022-07-29T20:26:08.747Z,99567.34
2022-07-29T20:28:40.455Z,99570.56
2022-07-29T20:31:09.273Z,99576.06
2022-07-29T20:33:37.732Z,99576.84
2022-07-29T20:36:06.435Z,99581.03
2022-07-29T20:38:36.065Z,99576.94
2022-07-29T20:41:05.032Z,99576.41
2022-07-29T20:43:35.937Z,99581.09
2022-07-29T20:46:07.253Z,99580.72
2022-07-29T20:48:35.513Z,99586.75
2022-07-29T20:51:03.753Z,99579.16
2022-07-29T20:53:32.933Z,99591.56
2022-07-29T20:56:02.698Z,99588.25
2022-07-29T20:58:32.452Z,99594.34
2022-07-29T21:01:01.099Z,99590.31
2022-07-29T21:03:29.503Z,99605.97
2022-07-29T21:05:57.825Z,99604.13
2022-07-29T21:08:26.223Z,99605.69
2022-07-29T21:10:54.539Z,99605.44
2022-07-29T21:13:25.720Z,99616.09
2022-07-29T21:15:58.606Z,99615.56
2022-07-29T21:18:32.428Z,99621.00
2022-07-29T21:21:01.891Z,99618.34
2022-07-29T21:23:30.264Z,99625.75
2022-07-29T21:25:58.701Z,99632.75
2022-07-29T21:28:27.283Z,99629.47
2022-07-29T21:30:55.801Z,99629.06
2022-07-29T21:33:24.343Z,99626.91
2022-07-29T21:36:15.384Z,99629.03
2022-07-29T21:38:41.043Z,99623.63
2022-07-29T21:41:10.917Z,99625.97
2022-07-29T21:43:42.388Z,99625.38
2022-07-29T21:46:10.813Z,99633.41
2022-07-29T21:48:43.821Z,99634.78
2022-07-29T21:51:12.850Z,99635.06
2022-07-29T21:53:41.623Z,99641.03
2022-07-29T21:56:14.464Z,99643.06
2022-07-29T21:58:44.923Z,99640.19
2022-07-29T22:01:13.119Z,99638.94
2022-07-29T22:03:41.370Z,99640.59
2022-07-29T22:06:11.283Z,99640.81
2022-07-29T22:08:48.075Z,99634.59
2022-07-29T22:11:16.548Z,99630.28
2022-07-29T22:13:46.194Z,99636.28
2022-07-29T22:16:15.195Z,99639.59
2022-07-29T22:18:47.026Z,99649.28
2022-07-29T22:21:15.409Z,99643.91
2022-07-29T22:23:43.715Z,99640.81
2022-07-29T22:26:12.113Z,99648.25
2022-07-29T22:28:40.575Z,99645.78
2022-07-29T22:31:10.455Z,99652.34
2022-07-29T22:33:43.106Z,99646.59
2022-07-29T22:36:11.717Z,99649.28
2022-07-29T22:38:39.882Z,99658.28
2022-07-29T22:41:08.182Z,99662.00
2022-07-29T22:43:36.422Z,99671.03
2022-07-29T22:46:04.795Z,99655.88
2022-07-29T22:48:34.494Z,99658.91
2022-07-29T22:51:02.735Z,99662.63
2022-07-29T22:53:30.847Z,99669.88
2022-07-29T22:55:59.177Z,99661.38
2022-07-29T22:58:27.639Z,99668.03
2022-07-29T23:00:55.919Z,99671.56
2022-07-29T23:03:24.261Z,99670.72
2022-07-29T23:05:53.976Z,99672.09
2022-07-29T23:08:22.177Z,99676.25
2022-07-29T23:10:50.394Z,99669.56
2022-07-29T23:13:18.848Z,99671.97
2022-07-29T23:15:47.102Z,99686.50
2022-07-29T23:18:15.427Z,99687.41
2022-07-29T23:20:43.963Z,99681.44
2022-07-29T23:23:13.903Z,99677.69
2022-07-29T23:25:42.428Z,99684.53
2022-07-29T23:28:11.636Z,99678.50
2022-07-29T23:30:41.951Z,99684.28
2022-07-29T23:33:10.346Z,99681.72
2022-07-29T23:35:38.599Z,99680.22
2022-07-29T23:38:06.995Z,99683.38
2022-07-29T23:40:36.696Z,99685.06
2022-07-29T23:43:08.761Z,99684.09
2022-07-29T23:45:42.838Z,99684.91
2022-07-29T23:48:14.667Z,99676.91
2022-07-29T23:50:42.889Z,99681.75
2022-07-29T23:53:12.204Z,99686.25
2022-07-29T23:55:41.822Z,99687.28
2022-07-29T23:58:10.144Z,99681.50
